sensor_id;sensor_type;location;lat;lon;timestamp;pressure;altitude;pressure_sealevel;temperature;humidity
67029;BME280;53934;52.142;11.738;2022-10-22T00:00:11;100547.69;;;14.78;86.31
67029;BME280;53934;52.142;11.738;2022-10-22T00:02:39;100540.66;;;14.66;85.90
67029;BME280;53934;52.142;11.738;2022-10-22T00:05:06;100534.03;;;14.60;86.23
67029;BME280;53934;52.142;11.738;2022-10-22T00:07:33;100544.19;;;14.41;87.11
67029;BME280;53934;52.142;11.738;2022-10-22T00:10:00;100552.94;;;14.29;88.51
67029;BME280;53934;52.142;11.738;2022-10-22T00:12:27;100556.03;;;13.85;91.82
67029;BME280;53934;52.142;11.738;2022-10-22T00:14:53;100560.88;;;13.91;91.79
67029;BME280;53934;52.142;11.738;2022-10-22T00:17:20;100560.97;;;13.90;94.27
67029;BME280;53934;52.142;11.738;2022-10-22T00:19:47;100559.06;;;13.92;96.59
67029;BME280;53934;52.142;11.738;2022-10-22T00:22:14;100566.56;;;13.98;96.72
67029;BME280;53934;52.142;11.738;2022-10-22T00:24:41;100556.53;;;14.28;95.49
67029;BME280;53934;52.142;11.738;2022-10-22T00:27:09;100562.53;;;14.30;94.88
67029;BME280;53934;52.142;11.738;2022-10-22T00:29:36;100565.72;;;14.23;96.19
67029;BME280;53934;52.142;11.738;2022-10-22T00:32:04;100573.31;;;14.14;97.27
67029;BME280;53934;52.142;11.738;2022-10-22T00:34:31;100592.00;;;14.11;96.84
67029;BME280;53934;52.142;11.738;2022-10-22T00:36:59;100588.88;;;13.80;100.00
67029;BME280;53934;52.142;11.738;2022-10-22T00:39:27;100569.25;;;13.71;100.00
67029;BME280;53934;52.142;11.738;2022-10-22T00:41:56;100559.25;;;14.27;98.49
67029;BME280;53934;52.142;11.738;2022-10-22T00:45:00;100552.50;;;14.60;94.99
67029;BME280;53934;52.142;11.738;2022-10-22T00:47:32;100548.81;;;14.87;92.98
67029;BME280;53934;52.142;11.738;2022-10-22T00:50:01;100558.28;;;14.66;92.72
67029;BME280;53934;52.142;11.738;2022-10-22T00:52:30;100564.50;;;14.65;92.62
67029;BME280;53934;52.142;11.738;2022-10-22T00:54:57;100563.19;;;14.59;93.66
67029;BME280;53934;52.142;11.738;2022-10-22T00:57:24;100560.97;;;14.28;94.50
67029;BME280;53934;52.142;11.738;2022-10-22T00:59:51;100554.88;;;14.40;94.64
67029;BME280;53934;52.142;11.738;2022-10-22T01:02:17;100550.69;;;14.61;93.72
67029;BME280;53934;52.142;11.738;2022-10-22T01:04:44;100562.47;;;14.81;91.91
67029;BME280;53934;52.142;11.738;2022-10-22T01:07:14;100560.56;;;14.83;91.02
67029;BME280;53934;52.142;11.738;2022-10-22T01:09:49;100557.00;;;14.71;91.94
67029;BME280;53934;52.142;11.738;2022-10-22T01:12:22;100553.16;;;14.51;94.11
67029;BME280;53934;52.142;11.738;2022-10-22T01:14:53;100545.63;;;14.71;92.98
67029;BME280;53934;52.142;11.738;2022-10-22T01:17:31;100544.16;;;14.67;92.95
67029;BME280;53934;52.142;11.738;2022-10-22T01:20:07;100540.59;;;14.55;93.41
67029;BME280;53934;52.142;11.738;2022-10-22T01:22:39;100541.53;;;14.90;91.95
67029;BME280;53934;52.142;11.738;2022-10-22T01:25:12;100549.69;;;14.87;91.73
67029;BME280;53934;52.142;11.738;2022-10-22T01:27:51;100551.69;;;14.84;91.91
67029;BME280;53934;52.142;11.738;2022-10-22T01:30:24;100552.88;;;14.80;91.63
67029;BME280;53934;52.142;11.738;2022-10-22T01:32:53;100551.75;;;14.95;90.23
67029;BME280;53934;52.142;11.738;2022-10-22T01:35:24;100547.31;;;15.19;89.87
67029;BME280;53934;52.142;11.738;2022-10-22T01:37:54;100537.97;;;15.26;89.19
67029;BME280;53934;52.142;11.738;2022-10-22T01:40:22;100542.53;;;15.48;88.42
67029;BME280;53934;52.142;11.738;2022-10-22T01:42:57;100540.19;;;15.32;88.16
67029;BME280;53934;52.142;11.738;2022-10-22T01:45:26;100542.06;;;15.30;88.06
67029;BME280;53934;52.142;11.738;2022-10-22T01:48:02;100542.53;;;15.24;87.71
67029;BME280;53934;52.142;11.738;2022-10-22T01:50:41;100545.66;;;15.18;87.89
67029;BME280;53934;52.142;11.738;2022-10-22T01:53:20;100539.94;;;15.35;nan
67029;BME280;53934;52.142;11.738;2022-10-22T01:55:58;100530.91;;;15.27;87.07
67029;BME280;53934;52.142;11.738;2022-10-22T01:58:37;100540.66;;;15.37;86.80
67029;BME280;53934;52.142;11.738;2022-10-22T02:01:14;100540.47;;;15.40;86.33
67029;BME280;53934;52.142;11.738;2022-10-22T02:03:47;100540.41;;;15.29;85.99
67029;BME280;53934;52.142;11.738;2022-10-22T02:06:18;100547.63;;;15.38;85.80
67029;BME280;53934;52.142;11.738;2022-10-22T02:08:47;100542.19;;;15.52;84.81
67029;BME280;53934;52.142;11.738;2022-10-22T02:11:15;100550.38;;;15.61;84.21
67029;BME280;53934;52.142;11.738;2022-10-22T02:13:44;100541.69;;;15.47;83.92
67029;BME280;53934;52.142;11.738;2022-10-22T02:16:16;100546.63;;;15.87;82.63
67029;BME280;53934;52.142;11.738;2022-10-22T02:18:45;100549.84;;;15.79;82.80
67029;BME280;53934;52.142;11.738;2022-10-22T02:21:12;100548.50;;;15.63;83.40
67029;BME280;53934;52.142;11.738;2022-10-22T02:23:39;100550.91;;;15.42;84.29
67029;BME280;53934;52.142;11.738;2022-10-22T02:26:13;100542.66;;;14.99;86.67
67029;BME280;53934;52.142;11.738;2022-10-22T02:28:46;100535.75;;;14.85;88.11
67029;BME280;53934;52.142;11.738;2022-10-22T02:31:18;100541.19;;;14.95;88.21
67029;BME280;53934;52.142;11.738;2022-10-22T02:33:50;100533.00;;;14.87;88.25
67029;BME280;53934;52.142;11.738;2022-10-22T02:36:19;100531.09;;;15.13;87.62
67029;BME280;53934;52.142;11.738;2022-10-22T02:38:48;100529.00;;;15.29;86.69
67029;BME280;53934;52.142;11.738;2022-10-22T02:41:17;100530.00;;;15.39;85.95
67029;BME280;53934;52.142;11.738;2022-10-22T02:43:50;100528.44;;;15.36;86.39
67029;BME280;53934;52.142;11.738;2022-10-22T02:46:19;100535.97;;;15.30;85.80
67029;BME280;53934;52.142;11.738;2022-10-22T02:48:46;100534.28;;;15.29;85.52
67029;BME280;53934;52.142;11.738;2022-10-22T02:51:13;100536.06;;;15.04;86.34
67029;BME280;53934;52.142;11.738;2022-10-22T02:53:39;100532.72;;;15.02;86.75
67029;BME280;53934;52.142;11.738;2022-10-22T02:56:06;100530.59;;;15.07;86.53
67029;BME280;53934;52.142;11.738;2022-10-22T02:58:33;100541.88;;;15.09;86.71
67029;BME280;53934;52.142;11.738;2022-10-22T03:00:59;100553.38;;;14.85;86.94
67029;BME280;53934;52.142;11.738;2022-10-22T03:03:27;100549.28;;;14.81;87.63
67029;BME280;53934;52.142;11.738;2022-10-22T03:05:53;100556.28;;;14.56;88.87
67029;BME280;53934;52.142;11.738;2022-10-22T03:08:20;100550.31;;;14.78;88.17
67029;BME280;53934;52.142;11.738;2022-10-22T03:10:46;100563.44;;;14.67;90.43
67029;BME280;53934;52.142;11.738;2022-10-22T03:13:13;100553.63;;;14.69;91.01
67029;BME280;53934;52.142;11.738;2022-10-22T03:15:39;100554.09;;;14.87;90.03
67029;BME280;53934;52.142;11.738;2022-10-22T03:18:06;100552.53;;;15.08;88.79
67029;BME280;53934;52.142;11.738;2022-10-22T03:20:33;100566.63;;;14.72;89.55
67029;BME280;53934;52.142;11.738;2022-10-22T03:23:01;100566.66;;;14.34;91.47
67029;BME280;53934;52.142;11.738;2022-10-22T03:25:28;100568.44;;;14.59;90.90
67029;BME280;53934;52.142;11.738;2022-10-22T03:27:56;100562.56;;;14.92;89.79
67029;BME280;53934;52.142;11.738;2022-10-22T03:30:26;100566.88;;;15.17;88.05
67029;BME280;53934;52.142;11.738;2022-10-22T03:32:52;100571.09;;;15.19;87.23
67029;BME280;53934;52.142;11.738;2022-10-22T03:35:19;100572.97;;;15.30;87.05
67029;BME280;53934;52.142;11.738;2022-10-22T03:37:47;100572.16;;;15.40;86.73
67029;BME280;53934;52.142;11.738;2022-10-22T03:40:14;100567.59;;;15.42;86.38
67029;BME280;53934;52.142;11.738;2022-10-22T03:42:41;100566.47;;;15.34;86.88
67029;BME280;53934;52.142;11.738;2022-10-22T03:45:08;100580.03;;;15.29;86.99
67029;BME280;53934;52.142;11.738;2022-10-22T03:47:35;100563.72;;;15.35;86.96
67029;BME280;53934;52.142;11.738;2022-10-22T03:50:02;100574.63;;;15.31;86.24
67029;BME280;53934;52.142;11.738;2022-10-22T03:52:34;100570.88;;;15.22;86.52
67029;BME280;53934;52.142;11.738;2022-10-22T03:55:03;100582.28;;;14.99;87.09
67029;BME280;53934;52.142;11.738;2022-10-22T03:57:29;100580.00;;;14.82;88.30
67029;BME280;53934;52.142;11.738;2022-10-22T03:59:56;100582.19;;;14.88;87.62
67029;BME280;53934;52.142;11.738;2022-10-22T04:02:22;100586.19;;;14.93;87.94
67029;BME280;53934;52.142;11.738;2022-10-22T04:04:49;100583.84;;;15.01;87.22
67029;BME280;53934;52.142;11.738;2022-10-22T04:07:15;100585.56;;;14.90;88.29
67029;BME280;53934;52.142;11.738;2022-10-22T04:09:42;100585.78;;;14.87;88.47
67029;BME280;53934;52.142;11.738;2022-10-22T04:12:09;100575.75;;;14.92;88.75
67029;BME280;53934;52.142;11.738;2022-10-22T04:14:36;100580.91;;;14.93;88.83
67029;BME280;53934;52.142;11.738;2022-10-22T04:17:02;100580.03;;;14.69;91.45
67029;BME280;53934;52.142;11.738;2022-10-22T04:19:29;100585.75;;;14.63;92.78
67029;BME280;53934;52.142;11.738;2022-10-22T04:21:56;100587.72;;;14.85;91.34
67029;BME280;53934;52.142;11.738;2022-10-22T04:24:23;100590.84;;;14.90;91.37
67029;BME280;53934;52.142;11.738;2022-10-22T04:26:52;100592.84;;;14.99;91.39
67029;BME280;53934;52.142;11.738;2022-10-22T04:29:20;100589.75;;;15.29;89.52
67029;BME280;53934;52.142;11.738;2022-10-22T04:31:47;100598.34;;;15.43;88.46
67029;BME280;53934;52.142;11.738;2022-10-22T04:34:13;100599.19;;;15.20;89.15
67029;BME280;53934;52.142;11.738;2022-10-22T04:36:39;100602.72;;;15.08;90.25
67029;BME280;53934;52.142;11.738;2022-10-22T04:39:06;100599.13;;;14.85;92.04
67029;BME280;53934;52.142;11.738;2022-10-22T04:41:34;100604.03;;;14.90;90.98
67029;BME280;53934;52.142;11.738;2022-10-22T04:44:01;100594.13;;;15.17;89.99
67029;BME280;53934;52.142;11.738;2022-10-22T04:46:32;100600.56;;;15.49;88.37
67029;BME280;53934;52.142;11.738;2022-10-22T04:48:59;100594.03;;;15.66;nan
67029;BME280;53934;52.142;11.738;2022-10-22T04:51:27;100605.66;;;14.80;90.82
67029;BME280;53934;52.142;11.738;2022-10-22T04:53:54;100604.25;;;14.87;90.77
67029;BME280;53934;52.142;11.738;2022-10-22T04:56:23;100610.13;;;14.29;94.57
67029;BME280;53934;52.142;11.738;2022-10-22T04:58:51;100613.91;;;14.12;95.81
67029;BME280;53934;52.142;11.738;2022-10-22T05:01:19;100606.94;;;13.98;96.95
67029;BME280;53934;52.142;11.738;2022-10-22T05:03:49;100608.63;;;13.99;98.44
67029;BME280;53934;52.142;11.738;2022-10-22T05:06:16;100600.66;;;14.39;96.96
67029;BME280;53934;52.142;11.738;2022-10-22T05:08:42;100615.16;;;14.82;93.07
67029;BME280;53934;52.142;11.738;2022-10-22T05:11:10;100610.16;;;14.90;92.09
67029;BME280;53934;52.142;11.738;2022-10-22T05:13:37;100610.56;;;14.23;95.73
67029;BME280;53934;52.142;11.738;2022-10-22T05:16:04;100616.69;;;14.36;95.94
67029;BME280;53934;52.142;11.738;2022-10-22T05:18:33;100630.13;;;13.81;99.59
67029;BME280;53934;52.142;11.738;2022-10-22T05:21:01;100636.47;;;13.91;99.31
67029;BME280;53934;52.142;11.738;2022-10-22T05:23:27;100633.19;;;13.48;100.00
67029;BME280;53934;52.142;11.738;2022-10-22T05:25:54;100623.34;;;13.77;100.00
67029;BME280;53934;52.142;11.738;2022-10-22T05:28:20;100612.94;;;13.88;100.00
67029;BME280;53934;52.142;11.738;2022-10-22T05:30:51;100615.63;;;14.38;97.49
67029;BME280;53934;52.142;11.738;2022-10-22T05:33:18;100616.13;;;14.69;94.78
67029;BME280;53934;52.142;11.738;2022-10-22T05:35:46;100625.84;;;15.04;92.23
67029;BME280;53934;52.142;11.738;2022-10-22T05:38:14;100628.66;;;14.90;93.01
67029;BME280;53934;52.142;11.738;2022-10-22T05:40:41;100623.94;;;14.70;94.22
67029;BME280;53934;52.142;11.738;2022-10-22T05:43:07;100616.06;;;14.94;92.80
67029;BME280;53934;52.142;11.738;2022-10-22T05:45:35;100618.53;;;14.84;91.64
67029;BME280;53934;52.142;11.738;2022-10-22T05:48:01;100610.09;;;14.79;91.00
67029;BME280;53934;52.142;11.738;2022-10-22T05:50:28;100612.84;;;14.78;91.64
67029;BME280;53934;52.142;11.738;2022-10-22T05:52:54;100613.50;;;15.05;90.12
67029;BME280;53934;52.142;11.738;2022-10-22T05:55:22;100609.09;;;14.93;89.08
67029;BME280;53934;52.142;11.738;2022-10-22T05:57:49;100617.28;;;15.14;88.82
67029;BME280;53934;52.142;11.738;2022-10-22T06:00:16;100627.94;;;15.12;88.13
67029;BME280;53934;52.142;11.738;2022-10-22T06:02:42;100631.84;;;14.83;88.42
67029;BME280;53934;52.142;11.738;2022-10-22T06:05:09;100631.13;;;15.04;87.80
67029;BME280;53934;52.142;11.738;2022-10-22T06:07:35;100633.34;;;14.61;90.04
67029;BME280;53934;52.142;11.738;2022-10-22T06:10:02;100640.50;;;14.85;88.99
67029;BME280;53934;52.142;11.738;2022-10-22T06:12:30;100636.34;;;14.93;87.85
67029;BME280;53934;52.142;11.738;2022-10-22T06:14:56;100645.88;;;14.20;92.56
67029;BME280;53934;52.142;11.738;2022-10-22T06:17:23;100651.63;;;13.87;96.88
67029;BME280;53934;52.142;11.738;2022-10-22T06:19:49;100654.19;;;13.89;97.38
67029;BME280;53934;52.142;11.738;2022-10-22T06:22:15;100652.03;;;14.58;94.61
67029;BME280;53934;52.142;11.738;2022-10-22T06:24:42;100653.91;;;14.31;95.41
67029;BME280;53934;52.142;11.738;2022-10-22T06:27:08;100656.34;;;14.34;97.17
67029;BME280;53934;52.142;11.738;2022-10-22T06:29:36;100651.06;;;14.34;97.27
67029;BME280;53934;52.142;11.738;2022-10-22T06:32:02;100656.03;;;14.64;95.12
67029;BME280;53934;52.142;11.738;2022-10-22T06:34:29;100660.47;;;14.76;93.43
67029;BME280;53934;52.142;11.738;2022-10-22T06:36:55;100668.72;;;15.21;90.74
67029;BME280;53934;52.142;11.738;2022-10-22T06:39:22;100676.09;;;15.28;90.32
67029;BME280;53934;52.142;11.738;2022-10-22T06:41:48;100673.06;;;15.45;90.06
67029;BME280;53934;52.142;11.738;2022-10-22T06:44:16;100682.59;;;14.99;92.23
67029;BME280;53934;52.142;11.738;2022-10-22T06:46:44;100685.69;;;14.80;95.06
67029;BME280;53934;52.142;11.738;2022-10-22T06:49:12;100695.41;;;14.80;95.67
67029;BME280;53934;52.142;11.738;2022-10-22T06:51:39;100697.69;;;14.97;94.58
67029;BME280;53934;52.142;11.738;2022-10-22T06:54:05;100701.72;;;14.90;95.35
67029;BME280;53934;52.142;11.738;2022-10-22T06:56:31;100699.50;;;14.71;95.97
67029;BME280;53934;52.142;11.738;2022-10-22T06:58:58;100708.28;;;14.72;96.29
67029;BME280;53934;52.142;11.738;2022-10-22T07:01:25;100717.16;;;14.96;94.37
67029;BME280;53934;52.142;11.738;2022-10-22T07:03:54;100712.84;;;14.44;97.46
67029;BME280;53934;52.142;11.738;2022-10-22T07:06:22;100716.06;;;14.23;100.00
67029;BME280;53934;52.142;11.738;2022-10-22T07:08:50;100726.34;;;14.13;100.00
67029;BME280;53934;52.142;11.738;2022-10-22T07:11:18;100724.19;;;13.93;100.00
67029;BME280;53934;52.142;11.738;2022-10-22T07:13:45;100727.66;;;13.93;100.00
67029;BME280;53934;52.142;11.738;2022-10-22T07:16:12;100739.06;;;13.94;100.00
67029;BME280;53934;52.142;11.738;2022-10-22T07:18:39;100730.69;;;14.14;100.00
67029;BME280;53934;52.142;11.738;2022-10-22T07:21:08;100731.84;;;14.10;100.00
67029;BME280;53934;52.142;11.738;2022-10-22T07:23:36;100739.44;;;14.27;100.00
67029;BME280;53934;52.142;11.738;2022-10-22T07:26:03;100748.25;;;14.01;100.00
67029;BME280;53934;52.142;11.738;2022-10-22T07:28:31;100743.31;;;14.36;100.00
67029;BME280;53934;52.142;11.738;2022-10-22T07:30:58;100739.56;;;14.78;98.03
67029;BME280;53934;52.142;11.738;2022-10-22T07:33:24;100747.31;;;15.17;95.30
67029;BME280;53934;52.142;11.738;2022-10-22T07:35:56;100745.81;;;15.51;92.83
67029;BME280;53934;52.142;11.738;2022-10-22T07:38:25;100748.28;;;15.65;91.98
67029;BME280;53934;52.142;11.738;2022-10-22T07:40:52;100756.84;;;15.69;91.00
67029;BME280;53934;52.142;11.738;2022-10-22T07:43:18;100750.59;;;15.93;90.29
67029;BME280;53934;52.142;11.738;2022-10-22T07:45:45;100758.72;;;16.03;89.55
67029;BME280;53934;52.142;11.738;2022-10-22T07:48:11;100765.66;;;16.04;89.12
67029;BME280;53934;52.142;11.738;2022-10-22T07:50:38;100767.31;;;16.18;88.79
67029;BME280;53934;52.142;11.738;2022-10-22T07:53:04;100764.56;;;16.30;87.90
67029;BME280;53934;52.142;11.738;2022-10-22T07:55:32;100769.19;;;16.39;87.55
67029;BME280;53934;52.142;11.738;2022-10-22T07:57:59;100776.34;;;16.26;88.01
67029;BME280;53934;52.142;11.738;2022-10-22T08:00:25;100775.19;;;16.41;87.54
67029;BME280;53934;52.142;11.738;2022-10-22T08:02:52;100779.78;;;16.39;87.30
67029;BME280;53934;52.142;11.738;2022-10-22T08:05:18;100776.38;;;16.61;87.05
67029;BME280;53934;52.142;11.738;2022-10-22T08:07:45;100782.69;;;16.47;87.14
67029;BME280;53934;52.142;11.738;2022-10-22T08:10:11;100775.72;;;16.46;88.40
67029;BME280;53934;52.142;11.738;2022-10-22T08:12:40;100779.75;;;16.74;86.96
67029;BME280;53934;52.142;11.738;2022-10-22T08:15:08;100785.84;;;16.18;89.59
67029;BME280;53934;52.142;11.738;2022-10-22T08:17:34;100783.91;;;15.72;92.74
67029;BME280;53934;52.142;11.738;2022-10-22T08:20:01;100790.03;;;15.73;93.84
67029;BME280;53934;52.142;11.738;2022-10-22T08:22:27;100786.63;;;16.07;92.67
67029;BME280;53934;52.142;11.738;2022-10-22T08:24:54;100795.78;;;15.90;93.84
67029;BME280;53934;52.142;11.738;2022-10-22T08:27:20;100792.78;;;15.71;94.93
67029;BME280;53934;52.142;11.738;2022-10-22T08:29:48;100801.13;;;15.78;94.73
67029;BME280;53934;52.142;11.738;2022-10-22T08:32:14;100795.88;;;15.65;95.29
67029;BME280;53934;52.142;11.738;2022-10-22T08:34:41;100796.16;;;15.73;95.79
67029;BME280;53934;52.142;11.738;2022-10-22T08:37:07;100794.00;;;15.54;96.73
67029;BME280;53934;52.142;11.738;2022-10-22T08:39:34;100802.66;;;15.56;97.95
67029;BME280;53934;52.142;11.738;2022-10-22T08:42:09;100808.00;;;16.04;95.14
67029;BME280;53934;52.142;11.738;2022-10-22T08:44:57;100804.22;;;16.19;93.57
67029;BME280;53934;52.142;11.738;2022-10-22T08:47:43;100804.44;;;16.40;92.97
67029;BME280;53934;52.142;11.738;2022-10-22T08:50:16;100814.09;;;16.87;90.57
67029;BME280;53934;52.142;11.738;2022-10-22T08:52:48;100811.16;;;17.25;88.49
67029;BME280;53934;52.142;11.738;2022-10-22T08:55:17;100818.59;;;17.53;86.96
67029;BME280;53934;52.142;11.738;2022-10-22T08:57:48;100818.03;;;17.61;86.44
67029;BME280;53934;52.142;11.738;2022-10-22T09:00:20;100815.25;;;17.51;87.08
67029;BME280;53934;52.142;11.738;2022-10-22T09:02:58;100820.44;;;17.64;86.47
67029;BME280;53934;52.142;11.738;2022-10-22T09:05:34;100818.56;;;17.97;86.36
67029;BME280;53934;52.142;11.738;2022-10-22T09:08:08;100817.22;;;18.67;84.35
67029;BME280;53934;52.142;11.738;2022-10-22T09:10:37;100817.81;;;19.82;82.99
67029;BME280;53934;52.142;11.738;2022-10-22T09:13:07;100819.03;;;20.27;78.20
67029;BME280;53934;52.142;11.738;2022-10-22T09:15:37;100822.28;;;19.72;79.15
67029;BME280;53934;52.142;11.738;2022-10-22T09:18:12;100818.63;;;20.80;76.62
67029;BME280;53934;52.142;11.738;2022-10-22T09:20:44;100824.59;;;21.11;74.81
67029;BME280;53934;52.142;11.738;2022-10-22T09:25:46;100820.06;;;23.09;67.37
67029;BME280;53934;52.142;11.738;2022-10-22T09:28:14;100825.00;;;23.97;63.33
67029;BME280;53934;52.142;11.738;2022-10-22T09:30:42;100828.63;;;24.54;61.03
67029;BME280;53934;52.142;11.738;2022-10-22T09:33:12;100827.28;;;24.58;58.27
67029;BME280;53934;52.142;11.738;2022-10-22T09:35:47;100831.16;;;24.88;58.08
67029;BME280;53934;52.142;11.738;2022-10-22T09:38:18;100833.28;;;25.17;57.42
67029;BME280;53934;52.142;11.738;2022-10-22T09:40:47;100822.91;;;25.06;57.15
67029;BME280;53934;52.142;11.738;2022-10-22T09:43:15;100833.16;;;24.70;58.03
67029;BME280;53934;52.142;11.738;2022-10-22T09:45:43;100827.47;;;24.89;56.13
67029;BME280;53934;52.142;11.738;2022-10-22T09:48:17;100827.28;;;24.66;56.05
67029;BME280;53934;52.142;11.738;2022-10-22T09:50:46;100832.16;;;24.95;57.49
67029;BME280;53934;52.142;11.738;2022-10-22T09:53:17;100840.75;;;25.62;55.67
67029;BME280;53934;52.142;11.738;2022-10-22T09:55:49;100837.84;;;26.02;55.53
67029;BME280;53934;52.142;11.738;2022-10-22T09:58:16;100848.75;;;26.40;50.74
67029;BME280;53934;52.142;11.738;2022-10-22T10:00:46;100847.84;;;26.47;51.26
67029;BME280;53934;52.142;11.738;2022-10-22T10:03:16;100848.50;;;27.09;52.43
67029;BME280;53934;52.142;11.738;2022-10-22T10:05:46;100853.91;;;27.24;47.20
67029;BME280;53934;52.142;11.738;2022-10-22T10:08:14;100851.47;;;26.77;49.29
67029;BME280;53934;52.142;11.738;2022-10-22T10:10:45;100841.56;;;26.78;49.84
67029;BME280;53934;52.142;11.738;2022-10-22T10:13:33;100845.19;;;27.22;47.42
67029;BME280;53934;52.142;11.738;2022-10-22T10:16:12;100852.13;;;27.17;46.91
67029;BME280;53934;52.142;11.738;2022-10-22T10:18:51;100845.19;;;27.22;47.91
67029;BME280;53934;52.142;11.738;2022-10-22T10:21:30;100833.06;;;27.55;47.26
67029;BME280;53934;52.142;11.738;2022-10-22T10:24:02;100837.66;;;27.91;45.63
67029;BME280;53934;52.142;11.738;2022-10-22T10:26:36;100840.44;;;28.12;46.30
67029;BME280;53934;52.142;11.738;2022-10-22T10:29:15;100832.59;;;28.17;47.43
67029;BME280;53934;52.142;11.738;2022-10-22T10:31:56;100833.25;;;28.40;45.25
67029;BME280;53934;52.142;11.738;2022-10-22T10:34:29;100828.81;;;28.12;45.48
67029;BME280;53934;52.142;11.738;2022-10-22T10:37:03;100830.78;;;27.88;45.06
67029;BME280;53934;52.142;11.738;2022-10-22T10:39:42;100843.50;;;27.94;44.83
67029;BME280;53934;52.142;11.738;2022-10-22T10:42:17;100845.47;;;27.27;44.55
67029;BME280;53934;52.142;11.738;2022-10-22T10:44:59;100834.06;;;27.40;47.42
67029;BME280;53934;52.142;11.738;2022-10-22T10:47:50;100832.53;;;27.45;45.17
67029;BME280;53934;52.142;11.738;2022-10-22T10:50:23;100836.81;;;27.17;47.74
67029;BME280;53934;52.142;11.738;2022-10-22T10:53:00;100840.34;;;27.18;46.17
67029;BME280;53934;52.142;11.738;2022-10-22T10:55:30;100834.06;;;27.40;47.19
67029;BME280;53934;52.142;11.738;2022-10-22T10:58:04;100839.06;;;27.43;46.15
67029;BME280;53934;52.142;11.738;2022-10-22T11:00:40;100834.84;;;27.99;45.60
67029;BME280;53934;52.142;11.738;2022-10-22T11:03:36;100838.16;;;27.65;45.12
67029;BME280;53934;52.142;11.738;2022-10-22T11:06:07;100845.75;;;27.76;44.30
67029;BME280;53934;52.142;11.738;2022-10-22T11:08:37;100842.16;;;28.05;45.19
67029;BME280;53934;52.142;11.738;2022-10-22T11:11:09;100847.81;;;27.74;43.92
67029;BME280;53934;52.142;11.738;2022-10-22T11:13:39;100839.66;;;27.53;44.19
67029;BME280;53934;52.142;11.738;2022-10-22T11:16:13;100845.59;;;27.48;45.85
67029;BME280;53934;52.142;11.738;2022-10-22T11:18:46;100839.53;;;27.32;46.81
67029;BME280;53934;52.142;11.738;2022-10-22T11:21:20;100839.34;;;27.33;47.56
67029;BME280;53934;52.142;11.738;2022-10-22T11:23:52;100843.38;;;27.52;44.17
67029;BME280;53934;52.142;11.738;2022-10-22T11:26:28;100840.91;;;27.86;44.16
67029;BME280;53934;52.142;11.738;2022-10-22T11:28:58;100843.53;;;27.65;45.76
67029;BME280;53934;52.142;11.738;2022-10-22T11:31:28;100843.34;;;27.37;44.68
67029;BME280;53934;52.142;11.738;2022-10-22T11:34:03;100842.50;;;27.37;45.59
67029;BME280;53934;52.142;11.738;2022-10-22T11:36:32;100848.50;;;27.09;43.77
67029;BME280;53934;52.142;11.738;2022-10-22T11:39:01;100849.09;;;27.20;45.01
67029;BME280;53934;52.142;11.738;2022-10-22T11:41:28;100842.41;;;27.16;45.47
67029;BME280;53934;52.142;11.738;2022-10-22T11:44:06;100835.28;;;27.37;44.93
67029;BME280;53934;52.142;11.738;2022-10-22T11:46:42;100827.44;;;27.42;46.06
67029;BME280;53934;52.142;11.738;2022-10-22T11:49:22;100834.97;;;27.32;44.86
67029;BME280;53934;52.142;11.738;2022-10-22T11:51:50;100826.38;;;27.51;45.87
67029;BME280;53934;52.142;11.738;2022-10-22T11:54:37;100832.75;;;27.36;44.96
67029;BME280;53934;52.142;11.738;2022-10-22T11:57:24;100827.25;;;27.00;42.44
67029;BME280;53934;52.142;11.738;2022-10-22T11:59:55;100836.00;;;26.03;46.40
67029;BME280;53934;52.142;11.738;2022-10-22T12:02:39;100846.69;;;25.33;48.79
67029;BME280;53934;52.142;11.738;2022-10-22T12:08:20;100837.16;;;25.14;52.46
67029;BME280;53934;52.142;11.738;2022-10-22T12:11:04;100834.31;;;25.16;51.79
67029;BME280;53934;52.142;11.738;2022-10-22T12:13:33;100834.31;;;24.27;51.76
67029;BME280;53934;52.142;11.738;2022-10-22T12:16:16;100829.09;;;24.17;54.16
67029;BME280;53934;52.142;11.738;2022-10-22T12:18:43;100828.09;;;24.43;52.21
67029;BME280;53934;52.142;11.738;2022-10-22T12:21:11;100838.66;;;24.36;52.78
67029;BME280;53934;52.142;11.738;2022-10-22T12:23:41;100834.84;;;23.47;54.08
67029;BME280;53934;52.142;11.738;2022-10-22T12:26:22;100832.09;;;23.72;55.32
67029;BME280;53934;52.142;11.738;2022-10-22T12:28:48;100838.91;;;23.59;53.96
67029;BME280;53934;52.142;11.738;2022-10-22T12:31:15;100845.41;;;23.90;52.49
67029;BME280;53934;52.142;11.738;2022-10-22T12:33:42;100841.53;;;23.51;54.28
67029;BME280;53934;52.142;11.738;2022-10-22T12:36:14;100842.69;;;23.82;52.75
67029;BME280;53934;52.142;11.738;2022-10-22T12:38:44;100846.19;;;24.16;52.71
67029;BME280;53934;52.142;11.738;2022-10-22T12:41:12;100841.53;;;24.35;50.70
67029;BME280;53934;52.142;11.738;2022-10-22T12:43:38;100839.50;;;24.37;50.58
67029;BME280;53934;52.142;11.738;2022-10-22T12:46:10;100838.00;;;24.26;51.39
67029;BME280;53934;52.142;11.738;2022-10-22T12:48:40;100849.41;;;24.52;49.14
67029;BME280;53934;52.142;11.738;2022-10-22T12:51:08;100835.34;;;24.75;49.35
67029;BME280;53934;52.142;11.738;2022-10-22T12:53:44;100848.94;;;24.89;49.72
67029;BME280;53934;52.142;11.738;2022-10-22T12:56:13;100838.50;;;24.62;49.06
67029;BME280;53934;52.142;11.738;2022-10-22T12:58:43;100837.00;;;24.35;49.76